sensor_id;sensor_type;location;lat;lon;timestamp;pressure;altitude;pressure_sealevel;temperature;humidity
79004;BME280;68369;51.050;17.018;2023-04-24T00:09:12;99155.08;;;12.64;74.14
79004;BME280;68369;51.050;17.018;2023-04-24T00:11:57;99154.73;;;12.64;73.99
79004;BME280;68369;51.050;17.018;2023-04-24T00:14:42;99150.16;;;12.64;73.94
79004;BME280;68369;51.050;17.018;2023-04-24T00:17:27;99149.64;;;12.67;73.80
79004;BME280;68369;51.050;17.018;2023-04-24T00:20:12;99143.81;;;12.70;73.75
79004;BME280;68369;51.050;17.018;2023-04-24T00:22:59;99144.64;;;12.73;73.72
79004;BME280;68369;51.050;17.018;2023-04-24T00:28:45;99136.54;;;12.75;73.44
79004;BME280;68369;51.050;17.018;2023-04-24T00:31:31;99133.19;;;12.76;73.57
79004;BME280;68369;51.050;17.018;2023-04-24T00:37:09;99127.04;;;12.80;73.37
79004;BME280;68369;51.050;17.018;2023-04-24T00:39:55;99122.73;;;12.82;73.31
79004;BME280;68369;51.050;17.018;2023-04-24T00:42:41;99124.51;;;12.82;73.21
79004;BME280;68369;51.050;17.018;2023-04-24T00:51:35;99116.77;;;12.79;73.13
79004;BME280;68369;51.050;17.018;2023-04-24T00:54:25;99111.39;;;12.81;73.15
79004;BME280;68369;51.050;17.018;2023-04-24T01:07:19;99106.98;;;12.74;73.04
79004;BME280;68369;51.050;17.018;2023-04-24T01:10:07;99111.48;;;12.75;73.29
79004;BME280;68369;51.050;17.018;2023-04-24T01:12:53;99112.64;;;12.76;73.11
79004;BME280;68369;51.050;17.018;2023-04-24T01:15:38;99106.48;;;12.76;73.07
79004;BME280;68369;51.050;17.018;2023-04-24T01:18:24;99103.42;;;12.74;73.31
79004;BME280;68369;51.050;17.018;2023-04-24T01:34:37;99092.39;;;12.69;73.36
79004;BME280;68369;51.050;17.018;2023-04-24T01:37:24;99089.11;;;12.68;73.40
79004;BME280;68369;51.050;17.018;2023-04-24T01:40:10;99089.14;;;12.68;73.55
79004;BME280;68369;51.050;17.018;2023-04-24T01:42:55;99088.77;;;12.66;73.64
79004;BME280;68369;51.050;17.018;2023-04-24T01:49:29;99080.58;;;12.70;73.64
79004;BME280;68369;51.050;17.018;2023-04-24T02:22:22;99068.16;;;12.77;73.91
79004;BME280;68369;51.050;17.018;2023-04-24T02:25:09;99069.81;;;12.78;74.03
79004;BME280;68369;51.050;17.018;2023-04-24T02:27:54;99063.17;;;12.80;74.15
79004;BME280;68369;51.050;17.018;2023-04-24T02:30:40;99057.94;;;12.79;74.10
79004;BME280;68369;51.050;17.018;2023-04-24T02:33:25;99051.73;;;12.77;74.04
79004;BME280;68369;51.050;17.018;2023-04-24T02:36:10;99048.48;;;12.77;74.24
79004;BME280;68369;51.050;17.018;2023-04-24T02:44:54;99043.17;;;12.75;74.62
79004;BME280;68369;51.050;17.018;2023-04-24T02:47:39;99039.52;;;12.77;74.65
79004;BME280;68369;51.050;17.018;2023-04-24T02:50:24;99036.30;;;12.78;74.64
79004;BME280;68369;51.050;17.018;2023-04-24T02:53:09;99031.11;;;12.76;74.71
79004;BME280;68369;51.050;17.018;2023-04-24T02:55:55;99026.00;;;12.74;74.57
79004;BME280;68369;51.050;17.018;2023-04-24T02:58:40;99023.84;;;12.72;74.91
79004;BME280;68369;51.050;17.018;2023-04-24T03:04:18;99019.86;;;12.67;75.09
79004;BME280;68369;51.050;17.018;2023-04-24T03:07:05;99015.71;;;12.66;75.16
79004;BME280;68369;51.050;17.018;2023-04-24T03:09:51;99017.89;;;12.65;75.27
79004;BME280;68369;51.050;17.018;2023-04-24T03:12:36;99016.06;;;12.63;75.48
79004;BME280;68369;51.050;17.018;2023-04-24T03:18:12;99026.38;;;12.59;75.37
79004;BME280;68369;51.050;17.018;2023-04-24T03:20:57;99028.30;;;12.59;75.58
79004;BME280;68369;51.050;17.018;2023-04-24T03:23:42;99029.48;;;12.60;75.73
79004;BME280;68369;51.050;17.018;2023-04-24T03:26:27;99032.54;;;12.61;75.97
79004;BME280;68369;51.050;17.018;2023-04-24T03:29:13;99039.13;;;12.62;75.94
79004;BME280;68369;51.050;17.018;2023-04-24T03:31:57;99043.77;;;12.61;75.68
79004;BME280;68369;51.050;17.018;2023-04-24T03:37:36;99039.94;;;12.56;75.67
79004;BME280;68369;51.050;17.018;2023-04-24T03:40:22;99044.98;;;12.54;75.76
79004;BME280;68369;51.050;17.018;2023-04-24T03:43:07;99039.91;;;12.54;75.57
79004;BME280;68369;51.050;17.018;2023-04-24T03:45:52;99040.70;;;12.53;75.57
79004;BME280;68369;51.050;17.018;2023-04-24T03:51:47;99038.29;;;12.45;75.38
79004;BME280;68369;51.050;17.018;2023-04-24T03:54:35;99040.17;;;12.37;75.44
79004;BME280;68369;51.050;17.018;2023-04-24T04:10:28;99042.88;;;12.11;75.19
79004;BME280;68369;51.050;17.018;2023-04-24T04:13:15;99042.83;;;12.07;75.21
79004;BME280;68369;51.050;17.018;2023-04-24T04:16:00;99043.89;;;12.07;75.26
79004;BME280;68369;51.050;17.018;2023-04-24T04:25:15;99041.61;;;12.17;75.23
79004;BME280;68369;51.050;17.018;2023-04-24T04:28:01;99037.81;;;12.19;75.13
79004;BME280;68369;51.050;17.018;2023-04-24T04:30:46;99037.08;;;12.19;74.74
79004;BME280;68369;51.050;17.018;2023-04-24T04:39:47;99030.95;;;12.27;74.75
79004;BME280;68369;51.050;17.018;2023-04-24T04:45:55;99029.31;;;12.30;74.70
79004;BME280;68369;51.050;17.018;2023-04-24T04:48:41;99035.88;;;12.29;74.43
79004;BME280;68369;51.050;17.018;2023-04-24T04:51:26;99033.83;;;12.28;74.74
79004;BME280;68369;51.050;17.018;2023-04-24T04:54:12;99035.73;;;12.31;74.59
79004;BME280;68369;51.050;17.018;2023-04-24T05:02:58;99041.16;;;12.46;74.25
79004;BME280;68369;51.050;17.018;2023-04-24T05:06:03;99042.06;;;12.51;74.30
79004;BME280;68369;51.050;17.018;2023-04-24T05:08:48;99040.89;;;12.55;74.33
79004;BME280;68369;51.050;17.018;2023-04-24T05:11:34;99045.80;;;12.62;74.04
79004;BME280;68369;51.050;17.018;2023-04-24T05:14:19;99043.85;;;12.73;74.49
79004;BME280;68369;51.050;17.018;2023-04-24T05:17:04;99041.13;;;12.81;74.12
79004;BME280;68369;51.050;17.018;2023-04-24T05:19:49;99036.54;;;12.89;74.06
79004;BME280;68369;51.050;17.018;2023-04-24T05:22:36;99037.98;;;12.96;73.67
79004;BME280;68369;51.050;17.018;2023-04-24T05:25:45;99040.77;;;13.03;73.72
79004;BME280;68369;51.050;17.018;2023-04-24T05:28:32;99043.35;;;13.11;73.39
79004;BME280;68369;51.050;17.018;2023-04-24T05:31:18;99042.14;;;13.15;72.96
79004;BME280;68369;51.050;17.018;2023-04-24T05:43:51;99048.99;;;13.66;70.64
79004;BME280;68369;51.050;17.018;2023-04-24T05:46:41;99059.15;;;13.78;69.76
79004;BME280;68369;51.050;17.018;2023-04-24T05:49:26;99057.55;;;13.87;69.51
79004;BME280;68369;51.050;17.018;2023-04-24T05:52:12;99058.79;;;13.97;69.10
79004;BME280;68369;51.050;17.018;2023-04-24T05:58:13;99058.00;;;14.11;66.97
79004;BME280;68369;51.050;17.018;2023-04-24T06:00:58;99065.09;;;14.18;66.90
79004;BME280;68369;51.050;17.018;2023-04-24T06:06:38;99070.14;;;14.25;66.56
79004;BME280;68369;51.050;17.018;2023-04-24T06:19:07;99074.25;;;14.47;66.63
79004;BME280;68369;51.050;17.018;2023-04-24T06:21:52;99070.83;;;14.50;66.10
79004;BME280;68369;51.050;17.018;2023-04-24T06:43:43;99064.66;;;14.84;64.52
79004;BME280;68369;51.050;17.018;2023-04-24T06:46:28;99066.11;;;14.92;64.20
79004;BME280;68369;51.050;17.018;2023-04-24T06:49:14;99068.23;;;14.99;64.47
79004;BME280;68369;51.050;17.018;2023-04-24T06:52:02;99070.65;;;15.04;64.31
79004;BME280;68369;51.050;17.018;2023-04-24T06:54:47;99065.79;;;15.10;64.50
79004;BME280;68369;51.050;17.018;2023-04-24T06:57:32;99064.90;;;15.16;64.67
79004;BME280;68369;51.050;17.018;2023-04-24T07:00:18;99064.86;;;15.23;63.60
79004;BME280;68369;51.050;17.018;2023-04-24T07:03:04;99063.05;;;15.30;63.19
79004;BME280;68369;51.050;17.018;2023-04-24T07:05:54;99058.69;;;15.38;63.10
79004;BME280;68369;51.050;17.018;2023-04-24T07:08:40;99060.11;;;15.44;63.32
79004;BME280;68369;51.050;17.018;2023-04-24T07:11:26;99064.48;;;15.51;63.26
79004;BME280;68369;51.050;17.018;2023-04-24T07:14:14;99065.58;;;15.59;63.29
79004;BME280;68369;51.050;17.018;2023-04-24T07:16:59;99068.30;;;15.67;63.06
79004;BME280;68369;51.050;17.018;2023-04-24T07:19:44;99063.55;;;15.71;62.04
79004;BME280;68369;51.050;17.018;2023-04-24T07:25:56;99064.93;;;15.95;61.96
79004;BME280;68369;51.050;17.018;2023-04-24T07:28:46;99069.61;;;16.10;61.42
79004;BME280;68369;51.050;17.018;2023-04-24T07:31:36;99063.85;;;16.22;59.62
79004;BME280;68369;51.050;17.018;2023-04-24T07:34:26;99071.51;;;16.34;58.70
79004;BME280;68369;51.050;17.018;2023-04-24T07:37:17;99070.00;;;16.41;58.14
79004;BME280;68369;51.050;17.018;2023-04-24T07:40:02;99070.32;;;16.47;57.99
79004;BME280;68369;51.050;17.018;2023-04-24T07:42:49;99069.89;;;16.52;57.79
79004;BME280;68369;51.050;17.018;2023-04-24T07:48:28;99071.11;;;16.75;57.11
79004;BME280;68369;51.050;17.018;2023-04-24T07:51:20;99072.34;;;16.85;56.95
79004;BME280;68369;51.050;17.018;2023-04-24T07:54:05;99076.88;;;17.00;56.46
79004;BME280;68369;51.050;17.018;2023-04-24T07:56:50;99073.05;;;17.07;56.55
79004;BME280;68369;51.050;17.018;2023-04-24T08:02:50;99073.91;;;17.04;55.80
79004;BME280;68369;51.050;17.018;2023-04-24T08:05:38;99072.42;;;16.96;55.86
79004;BME280;68369;51.050;17.018;2023-04-24T08:08:25;99073.73;;;16.86;56.68
79004;BME280;68369;51.050;17.018;2023-04-24T08:14:11;99079.31;;;16.76;58.84
79004;BME280;68369;51.050;17.018;2023-04-24T08:16:59;99081.16;;;16.75;59.68
79004;BME280;68369;51.050;17.018;2023-04-24T08:19:57;99080.89;;;16.74;60.10
79004;BME280;68369;51.050;17.018;2023-04-24T08:25:41;99088.73;;;16.69;60.89
79004;BME280;68369;51.050;17.018;2023-04-24T08:28:28;99087.73;;;16.64;61.51
79004;BME280;68369;51.050;17.018;2023-04-24T08:31:17;99091.49;;;16.66;61.79
79004;BME280;68369;51.050;17.018;2023-04-24T08:40:15;99086.29;;;16.61;62.48
79004;BME280;68369;51.050;17.018;2023-04-24T08:43:08;99085.73;;;16.57;62.69
79004;BME280;68369;51.050;17.018;2023-04-24T08:46:43;99083.21;;;16.53;63.35
79004;BME280;68369;51.050;17.018;2023-04-24T08:52:22;99087.31;;;16.47;64.18
79004;BME280;68369;51.050;17.018;2023-04-24T08:55:09;99084.38;;;16.44;64.93
79004;BME280;68369;51.050;17.018;2023-04-24T08:57:55;99086.48;;;16.46;65.40
79004;BME280;68369;51.050;17.018;2023-04-24T09:03:34;99089.80;;;16.69;66.46
79004;BME280;68369;51.050;17.018;2023-04-24T09:06:21;99089.26;;;16.80;67.11
79004;BME280;68369;51.050;17.018;2023-04-24T09:09:08;99085.08;;;17.01;66.41
79004;BME280;68369;51.050;17.018;2023-04-24T09:14:35;99090.14;;;17.73;66.37
79004;BME280;68369;51.050;17.018;2023-04-24T09:17:38;99095.67;;;18.13;64.67
79004;BME280;68369;51.050;17.018;2023-04-24T09:20:24;99096.52;;;18.30;63.62
79004;BME280;68369;51.050;17.018;2023-04-24T09:23:10;99095.76;;;18.46;63.60
79004;BME280;68369;51.050;17.018;2023-04-24T09:38:16;99095.37;;;18.91;59.52
79004;BME280;68369;51.050;17.018;2023-04-24T09:41:02;99091.15;;;18.74;59.30
79004;BME280;68369;51.050;17.018;2023-04-24T09:46:42;99091.30;;;18.39;59.90
79004;BME280;68369;51.050;17.018;2023-04-24T09:55:29;99065.48;;;17.93;61.90
79004;BME280;68369;51.050;17.018;2023-04-24T10:04:35;99077.52;;;17.70;60.93
79004;BME280;68369;51.050;17.018;2023-04-24T10:07:21;99076.95;;;17.64;60.14
79004;BME280;68369;51.050;17.018;2023-04-24T10:10:06;99077.18;;;17.54;59.83
79004;BME280;68369;51.050;17.018;2023-04-24T10:25:52;99065.39;;;17.41;60.37
79004;BME280;68369;51.050;17.018;2023-04-24T10:28:39;99070.05;;;17.46;60.01
79004;BME280;68369;51.050;17.018;2023-04-24T10:34:29;99068.67;;;17.75;60.97
79004;BME280;68369;51.050;17.018;2023-04-24T10:40:08;99073.25;;;17.71;59.54
79004;BME280;68369;51.050;17.018;2023-04-24T10:46:05;99079.65;;;17.69;60.60
79004;BME280;68369;51.050;17.018;2023-04-24T10:59:24;99080.80;;;17.39;60.04
79004;BME280;68369;51.050;17.018;2023-04-24T11:02:10;99079.51;;;17.28;60.30
79004;BME280;68369;51.050;17.018;2023-04-24T11:08:15;99068.08;;;17.15;59.50
79004;BME280;68369;51.050;17.018;2023-04-24T11:16:43;99066.25;;;17.12;59.05
79004;BME280;68369;51.050;17.018;2023-04-24T11:19:29;99065.27;;;17.11;57.95
79004;BME280;68369;51.050;17.018;2023-04-24T11:22:15;99064.21;;;17.11;58.13
79004;BME280;68369;51.050;17.018;2023-04-24T11:25:03;99062.64;;;17.16;58.15
79004;BME280;68369;51.050;17.018;2023-04-24T11:34:34;99066.30;;;17.89;57.58
79004;BME280;68369;51.050;17.018;2023-04-24T11:37:21;99066.73;;;18.11;57.07
79004;BME280;68369;51.050;17.018;2023-04-24T11:43:30;99066.41;;;18.50;56.61
79004;BME280;68369;51.050;17.018;2023-04-24T11:46:20;99068.84;;;18.77;56.00
79004;BME280;68369;51.050;17.018;2023-04-24T11:58:38;99072.64;;;18.75;54.85
79004;BME280;68369;51.050;17.018;2023-04-24T12:07:40;99069.21;;;18.17;53.75
79004;BME280;68369;51.050;17.018;2023-04-24T12:13:45;99067.02;;;17.86;55.01
79004;BME280;68369;51.050;17.018;2023-04-24T12:16:32;99067.87;;;17.64;54.52
79004;BME280;68369;51.050;17.018;2023-04-24T12:22:45;99058.98;;;17.41;55.71
79004;BME280;68369;51.050;17.018;2023-04-24T12:25:32;99057.27;;;17.27;55.18
79004;BME280;68369;51.050;17.018;2023-04-24T12:41:17;99055.56;;;17.15;56.85
79004;BME280;68369;51.050;17.018;2023-04-24T12:46:57;99051.70;;;17.13;56.99
79004;BME280;68369;51.050;17.018;2023-04-24T12:52:58;99049.02;;;17.09;57.75
79004;BME280;68369;51.050;17.018;2023-04-24T12:55:45;99044.48;;;17.06;57.41
79004;BME280;68369;51.050;17.018;2023-04-24T12:58:42;99043.98;;;17.04;58.10
79004;BME280;68369;51.050;17.018;2023-04-24T13:15:31;99037.84;;;17.27;59.86
79004;BME280;68369;51.050;17.018;2023-04-24T13:18:18;99050.13;;;17.04;59.59
79004;BME280;68369;51.050;17.018;2023-04-24T13:21:15;99053.09;;;16.75;59.68
79004;BME280;68369;51.050;17.018;2023-04-24T13:24:01;99058.30;;;16.31;57.35
79004;BME280;68369;51.050;17.018;2023-04-24T13:26:46;99047.60;;;15.87;57.16
79004;BME280;68369;51.050;17.018;2023-04-24T13:29:32;99042.92;;;15.62;58.19
79004;BME280;68369;51.050;17.018;2023-04-24T13:32:18;99043.85;;;15.47;58.92
79004;BME280;68369;51.050;17.018;2023-04-24T13:35:04;99044.88;;;15.35;59.21
79004;BME280;68369;51.050;17.018;2023-04-24T13:37:49;99043.54;;;15.25;60.01
79004;BME280;68369;51.050;17.018;2023-04-24T13:40:35;99044.85;;;15.15;60.29
79004;BME280;68369;51.050;17.018;2023-04-24T13:43:22;99045.10;;;15.01;60.28
79004;BME280;68369;51.050;17.018;2023-04-24T13:46:08;99046.92;;;14.90;60.90
79004;BME280;68369;51.050;17.018;2023-04-24T13:48:54;99046.91;;;14.77;61.28
79004;BME280;68369;51.050;17.018;2023-04-24T13:51:41;99047.86;;;14.69;61.53
79004;BME280;68369;51.050;17.018;2023-04-24T13:54:26;99048.66;;;14.61;61.29
79004;BME280;68369;51.050;17.018;2023-04-24T13:57:15;99041.39;;;14.55;61.66
79004;BME280;68369;51.050;17.018;2023-04-24T14:00:28;99046.41;;;14.49;61.59
79004;BME280;68369;51.050;17.018;2023-04-24T14:03:15;99046.56;;;14.45;61.77
79004;BME280;68369;51.050;17.018;2023-04-24T14:05:44;99044.56;;;14.42;61.67
79004;BME280;68369;51.050;17.018;2023-04-24T14:08:32;99038.92;;;14.30;61.48
79004;BME280;68369;51.050;17.018;2023-04-24T14:11:18;99053.10;;;14.34;61.53
79004;BME280;68369;51.050;17.018;2023-04-24T14:14:08;99052.88;;;14.30;61.51
79004;BME280;68369;51.050;17.018;2023-04-24T14:16:53;99050.36;;;14.26;61.61
79004;BME280;68369;51.050;17.018;2023-04-24T14:19:38;99046.46;;;14.22;61.70
79004;BME280;68369;51.050;17.018;2023-04-24T14:22:24;99045.21;;;14.18;62.05
79004;BME280;68369;51.050;17.018;2023-04-24T14:25:10;99051.35;;;14.13;62.17
79004;BME280;68369;51.050;17.018;2023-04-24T14:27:55;99046.77;;;14.11;62.39
79004;BME280;68369;51.050;17.018;2023-04-24T14:30:43;99047.27;;;14.11;62.41
79004;BME280;68369;51.050;17.018;2023-04-24T14:33:29;99046.89;;;14.12;62.77
79004;BME280;68369;51.050;17.018;2023-04-24T14:36:14;99049.02;;;14.11;63.46
79004;BME280;68369;51.050;17.018;2023-04-24T14:39:00;99048.85;;;14.09;63.39
79004;BME280;68369;51.050;17.018;2023-04-24T14:41:49;99050.55;;;14.08;63.54
79004;BME280;68369;51.050;17.018;2023-04-24T14:44:34;99048.89;;;14.04;63.44
79004;BME280;68369;51.050;17.018;2023-04-24T14:47:20;99052.70;;;14.00;63.56
79004;BME280;68369;51.050;17.018;2023-04-24T14:50:09;99052.84;;;13.91;63.39
79004;BME280;68369;51.050;17.018;2023-04-24T14:52:55;99054.72;;;13.83;63.86
79004;BME280;68369;51.050;17.018;2023-04-24T14:55:44;99055.45;;;13.73;64.18
79004;BME280;68369;51.050;17.018;2023-04-24T14:58:30;99056.98;;;13.62;64.29
79004;BME280;68369;51.050;17.018;2023-04-24T15:01:16;99053.48;;;13.55;63.96
79004;BME280;68369;51.050;17.018;2023-04-24T15:04:05;99058.30;;;13.57;64.13
79004;BME280;68369;51.050;17.018;2023-04-24T15:06:55;99052.94;;;13.58;63.43
79004;BME280;68369;51.050;17.018;2023-04-24T15:09:43;99057.77;;;13.59;63.42
79004;BME280;68369;51.050;17.018;2023-04-24T15:12:28;99062.45;;;13.60;63.47
79004;BME280;68369;51.050;17.018;2023-04-24T15:15:22;99060.91;;;13.59;63.64
79004;BME280;68369;51.050;17.018;2023-04-24T15:18:08;99063.01;;;13.57;64.47
79004;BME280;68369;51.050;17.018;2023-04-24T15:20:57;99059.85;;;13.57;64.58
79004;BME280;68369;51.050;17.018;2023-04-24T15:23:43;99067.42;;;13.57;64.82
79004;BME280;68369;51.050;17.018;2023-04-24T15:26:29;99069.11;;;13.55;65.36
79004;BME280;68369;51.050;17.018;2023-04-24T15:29:15;99069.28;;;13.55;66.11
79004;BME280;68369;51.050;17.018;2023-04-24T15:32:00;99072.17;;;13.57;66.66
79004;BME280;68369;51.050;17.018;2023-04-24T15:34:46;99071.52;;;13.59;67.00
79004;BME280;68369;51.050;17.018;2023-04-24T15:37:50;99067.81;;;13.61;67.24
79004;BME280;68369;51.050;17.018;2023-04-24T15:40:36;99065.52;;;13.63;67.48
79004;BME280;68369;51.050;17.018;2023-04-24T15:43:24;99072.34;;;13.64;67.67
79004;BME280;68369;51.050;17.018;2023-04-24T15:46:10;99072.71;;;13.61;67.61
79004;BME280;68369;51.050;17.018;2023-04-24T15:48:55;99076.80;;;13.61;68.08
79004;BME280;68369;51.050;17.018;2023-04-24T15:51:41;99077.89;;;13.60;68.74
79004;BME280;68369;51.050;17.018;2023-04-24T15:54:26;99072.20;;;13.57;68.68
79004;BME280;68369;51.050;17.018;2023-04-24T15:57:12;99076.70;;;13.55;69.32
79004;BME280;68369;51.050;17.018;2023-04-24T15:59:57;99074.48;;;13.54;69.54
79004;BME280;68369;51.050;17.018;2023-04-24T16:02:43;99076.46;;;13.51;69.63
79004;BME280;68369;51.050;17.018;2023-04-24T16:05:29;99072.11;;;13.50;70.12
79004;BME280;68369;51.050;17.018;2023-04-24T16:08:15;99070.08;;;13.49;70.15
79004;BME280;68369;51.050;17.018;2023-04-24T16:11:07;99070.36;;;13.48;70.29
79004;BME280;68369;51.050;17.018;2023-04-24T16:13:52;99066.17;;;13.45;70.25
79004;BME280;68369;51.050;17.018;2023-04-24T16:16:38;99069.00;;;13.43;70.65
79004;BME280;68369;51.050;17.018;2023-04-24T16:19:24;99071.58;;;13.39;70.67
79004;BME280;68369;51.050;17.018;2023-04-24T16:22:10;99071.17;;;13.37;70.77
79004;BME280;68369;51.050;17.018;2023-04-24T16:24:55;99066.61;;;13.35;70.87
79004;BME280;68369;51.050;17.018;2023-04-24T16:27:43;99073.06;;;13.35;71.21
79004;BME280;68369;51.050;17.018;2023-04-24T16:30:28;99075.26;;;13.32;71.39
79004;BME280;68369;51.050;17.018;2023-04-24T16:33:14;99080.42;;;13.28;71.72
79004;BME280;68369;51.050;17.018;2023-04-24T16:36:00;99075.48;;;13.23;71.71
79004;BME280;68369;51.050;17.018;2023-04-24T16:38:45;99080.92;;;13.21;72.10
79004;BME280;68369;51.050;17.018;2023-04-24T16:41:32;99076.27;;;13.20;72.44
79004;BME280;68369;51.050;17.018;2023-04-24T16:44:18;99078.48;;;13.18;72.19
79004;BME280;68369;51.050;17.018;2023-04-24T16:47:08;99078.23;;;13.15;72.09
79004;BME280;68369;51.050;17.018;2023-04-24T16:49:56;99076.92;;;13.11;71.99
79004;BME280;68369;51.050;17.018;2023-04-24T16:52:42;99077.83;;;13.06;72.38
79004;BME280;68369;51.050;17.018;2023-04-24T16:55:27;99083.28;;;13.03;72.32
79004;BME280;68369;51.050;17.018;2023-04-24T16:58:13;99076.43;;;13.01;72.50
79004;BME280;68369;51.050;17.018;2023-04-24T17:00:58;99072.38;;;13.01;72.95
79004;BME280;68369;51.050;17.018;2023-04-24T17:03:43;99073.73;;;12.99;72.90
79004;BME280;68369;51.050;17.018;2023-04-24T17:06:34;99079.29;;;12.95;73.16
79004;BME280;68369;51.050;17.018;2023-04-24T17:09:20;99078.90;;;12.93;73.54
79004;BME280;68369;51.050;17.018;2023-04-24T17:12:08;99084.45;;;12.92;73.82
79004;BME280;68369;51.050;17.018;2023-04-24T17:14:55;99078.44;;;12.92;73.65
79004;BME280;68369;51.050;17.018;2023-04-24T17:17:40;99069.04;;;12.91;73.87
79004;BME280;68369;51.050;17.018;2023-04-24T17:20:32;99063.34;;;12.87;73.90
79004;BME280;68369;51.050;17.018;2023-04-24T17:23:22;99061.55;;;12.80;74.29
79004;BME280;68369;51.050;17.018;2023-04-24T17:26:09;99070.10;;;12.81;74.56
79004;BME280;68369;51.050;17.018;2023-04-24T17:28:55;99070.51;;;12.78;74.68
79004;BME280;68369;51.050;17.018;2023-04-24T17:31:41;99070.98;;;12.76;74.80
79004;BME280;68369;51.050;17.018;2023-04-24T17:34:26;99077.66;;;12.76;74.92
79004;BME280;68369;51.050;17.018;2023-04-24T17:37:12;99081.52;;;12.76;75.20
79004;BME280;68369;51.050;17.018;2023-04-24T17:39:58;99082.61;;;12.76;75.33
79004;BME280;68369;51.050;17.018;2023-04-24T17:42:43;99086.40;;;12.72;75.27
79004;BME280;68369;51.050;17.018;2023-04-24T17:45:30;99088.80;;;12.68;75.35
79004;BME280;68369;51.050;17.018;2023-04-24T17:48:20;99094.11;;;12.62;75.41
79004;BME280;68369;51.050;17.018;2023-04-24T17:51:03;99095.23;;;12.58;75.58
79004;BME280;68369;51.050;17.018;2023-04-24T17:53:55;99102.69;;;12.57;75.72
79004;BME280;68369;51.050;17.018;2023-04-24T17:56:42;99107.15;;;12.59;75.95
79004;BME280;68369;51.050;17.018;2023-04-24T18:21:28;99143.23;;;12.27;76.18
79004;BME280;68369;51.050;17.018;2023-04-24T18:24:17;99146.82;;;12.31;76.36
79004;BME280;68369;51.050;17.018;2023-04-24T18:27:10;99147.41;;;12.35;76.36
79004;BME280;68369;51.050;17.018;2023-04-24T18:29:56;99150.39;;;12.38;76.32
79004;BME280;68369;51.050;17.018;2023-04-24T18:32:42;99152.89;;;12.40;76.24
79004;BME280;68369;51.050;17.018;2023-04-24T18:35:29;99149.98;;;12.39;76.55
79004;BME280;68369;51.050;17.018;2023-04-24T18:38:45;99151.77;;;12.38;76.48
79004;BME280;68369;51.050;17.018;2023-04-24T18:41:31;99155.58;;;12.38;76.49
79004;BME280;68369;51.050;17.018;2023-04-24T18:44:18;99159.65;;;12.41;76.36
79004;BME280;68369;51.050;17.018;2023-04-24T18:47:04;99162.31;;;12.43;76.46
79004;BME280;68369;51.050;17.018;2023-04-24T18:49:50;99161.08;;;12.43;76.34
79004;BME280;68369;51.050;17.018;2023-04-24T18:52:35;99159.90;;;12.42;76.18
79004;BME280;68369;51.050;17.018;2023-04-24T18:58:19;99164.98;;;12.37;76.37
79004;BME280;68369;51.050;17.018;2023-04-24T19:01:08;99163.95;;;12.37;76.46
79004;BME280;68369;51.050;17.018;2023-04-24T19:03:58;99172.29;;;12.38;76.54
79004;BME280;68369;51.050;17.018;2023-04-24T19:06:43;99175.05;;;12.39;76.73
79004;BME280;68369;51.050;17.018;2023-04-24T19:09:28;99171.14;;;12.35;76.37
79004;BME280;68369;51.050;17.018;2023-04-24T19:12:14;99168.20;;;12.29;76.07
79004;BME280;68369;51.050;17.018;2023-04-24T19:15:14;99163.15;;;12.25;76.38
79004;BME280;68369;51.050;17.018;2023-04-24T19:18:02;99165.23;;;12.26;76.62
79004;BME280;68369;51.050;17.018;2023-04-24T19:20:47;99162.23;;;12.29;76.35
79004;BME280;68369;51.050;17.018;2023-04-24T19:23:33;99166.30;;;12.29;76.31
79004;BME280;68369;51.050;17.018;2023-04-24T19:26:20;99164.88;;;12.29;76.56
79004;BME280;68369;51.050;17.018;2023-04-24T19:29:07;99161.30;;;12.27;76.53
79004;BME280;68369;51.050;17.018;2023-04-24T19:31:52;99162.45;;;12.26;76.52
79004;BME280;68369;51.050;17.018;2023-04-24T19:34:38;99164.02;;;12.24;76.62
79004;BME280;68369;51.050;17.018;2023-04-24T19:37:26;99156.20;;;12.22;76.50
79004;BME280;68369;51.050;17.018;2023-04-24T19:40:15;99156.95;;;12.21;76.05
79004;BME280;68369;51.050;17.018;2023-04-24T19:46:04;99153.33;;;12.20;76.40
79004;BME280;68369;51.050;17.018;2023-04-24T19:48:51;99144.80;;;12.14;76.44
79004;BME280;68369;51.050;17.018;2023-04-24T19:51:39;99151.52;;;12.19;76.49
79004;BME280;68369;51.050;17.018;2023-04-24T20:00:16;99159.17;;;12.09;76.00
79004;BME280;68369;51.050;17.018;2023-04-24T20:03:06;99160.23;;;12.01;76.11
79004;BME280;68369;51.050;17.018;2023-04-24T20:05:57;99163.70;;;11.94;76.23
79004;BME280;68369;51.050;17.018;2023-04-24T20:11:27;99157.38;;;11.89;75.91
79004;BME280;68369;51.050;17.018;2023-04-24T20:17:04;99159.71;;;11.85;75.83
79004;BME280;68369;51.050;17.018;2023-04-24T20:19:50;99161.83;;;11.82;76.08
79004;BME280;68369;51.050;17.018;2023-04-24T20:28:44;99166.55;;;11.74;75.51
79004;BME280;68369;51.050;17.018;2023-04-24T20:31:31;99169.80;;;11.70;75.29
79004;BME280;68369;51.050;17.018;2023-04-24T20:34:16;99168.33;;;11.66;75.35
79004;BME280;68369;51.050;17.018;2023-04-24T20:37:01;99170.71;;;11.61;75.44
79004;BME280;68369;51.050;17.018;2023-04-24T20:39:48;99171.66;;;11.58;75.75
79004;BME280;68369;51.050;17.018;2023-04-24T20:45:53;99177.52;;;11.59;76.15
79004;BME280;68369;51.050;17.018;2023-04-24T20:48:40;99179.27;;;11.62;76.05
79004;BME280;68369;51.050;17.018;2023-04-24T20:51:25;99184.30;;;11.63;75.88
79004;BME280;68369;51.050;17.018;2023-04-24T20:54:12;99183.34;;;11.61;75.98
79004;BME280;68369;51.050;17.018;2023-04-24T20:56:57;99182.27;;;11.59;75.72
79004;BME280;68369;51.050;17.018;2023-04-24T20:59:42;99184.02;;;11.56;75.88
79004;BME280;68369;51.050;17.018;2023-04-24T21:02:27;99184.98;;;11.54;75.78